| time (UTC) | temp F | wind direction | speed MPH | gust MPH | rain 1hr in | rain 24hr in | rain mn in | humidity % | barometer mb |
| 20260509030113 | 45 | 238 | 0.0 | 0.0 | 0.00 | 0.03 | 0.03 | 87 | 1012.6 |
| 20260509024601 | 46 | 238 | 0.0 | 1.0 | 0.00 | 0.03 | 0.03 | 85 | 1012.4 |
| 20260509023059 | 47 | 238 | 0.0 | 1.0 | 0.00 | 0.03 | 0.03 | 85 | 1012.4 |
| 20260509021558 | 47 | 238 | 0.0 | 0.0 | 0.00 | 0.03 | 0.03 | 85 | 1012.5 |
| 20260509020107 | 48 | 238 | 0.0 | 1.0 | 0.00 | 0.03 | 0.03 | 84 | 1012.4 |
| 20260509014557 | 48 | 238 | 0.0 | 1.0 | 0.00 | 0.03 | 0.03 | 84 | 1012.3 |
| 20260509013100 | 48 | 238 | 0.0 | 0.0 | 0.00 | 0.03 | 0.03 | 82 | 1012.1 |
| 20260509011558 | 48 | 238 | 0.0 | 0.0 | 0.00 | 0.03 | 0.03 | 82 | 1012.0 |
| 20260509010054 | 49 | 238 | 0.0 | 0.0 | 0.00 | 0.03 | 0.03 | 83 | 1011.7 |
| 20260509004600 | 49 | 238 | 0.0 | 1.0 | 0.00 | 0.03 | 0.03 | 83 | 1011.7 |
| 20260509003057 | 49 | 238 | 0.0 | 0.0 | 0.00 | 0.03 | 0.03 | 81 | 1011.5 |
| 20260509001553 | 50 | 238 | 0.0 | 1.0 | 0.00 | 0.03 | 0.03 | 82 | 1011.3 |
| 20260509000055 | 50 | 238 | 0.0 | 2.0 | 0.00 | 0.03 | 0.03 | 79 | 1011.3 |
| 20260508234552 | 51 | 238 | 0.0 | 2.0 | 0.00 | 0.03 | 0.03 | 75 | 1011.1 |
| 20260508233052 | 52 | 238 | 0.0 | 2.0 | 0.00 | 0.03 | 0.03 | 70 | 1011.1 |
| 20260508231550 | 53 | 238 | 0.0 | 1.0 | 0.00 | 0.03 | 0.03 | 65 | 1011.0 |
| 20260508230049 | 53 | 238 | 0.0 | 1.0 | 0.00 | 0.03 | 0.03 | 62 | 1010.8 |
| 20260508224613 | 53 | 238 | 0.0 | 2.0 | 0.00 | 0.03 | 0.03 | 61 | 1010.9 |
| 20260508223053 | 54 | 238 | 0.0 | 2.0 | 0.00 | 0.03 | 0.03 | 60 | 1010.8 |
| 20260508221548 | 54 | 244 | 1.0 | 8.0 | 0.00 | 0.03 | 0.03 | 60 | 1010.7 |
| 20260508220052 | 54 | 164 | 0.0 | 1.0 | 0.00 | 0.03 | 0.03 | 62 | 1010.7 |
| 20260508214547 | 54 | 164 | 1.0 | 3.0 | 0.00 | 0.03 | 0.03 | 60 | 1010.9 |
| 20260508213046 | 53 | 195 | 0.0 | 3.0 | 0.00 | 0.03 | 0.03 | 63 | 1010.9 |
| 20260508211551 | 53 | 268 | 1.0 | 3.0 | 0.00 | 0.03 | 0.03 | 63 | 1010.9 |
| 20260508210047 | 53 | 331 | 0.0 | 3.0 | 0.00 | 0.03 | 0.03 | 62 | 1010.9 |
| 20260508204544 | 54 | 235 | 2.0 | 5.0 | 0.00 | 0.03 | 0.03 | 59 | 1010.9 |
| 20260508203045 | 54 | 327 | 2.0 | 6.0 | 0.00 | 0.03 | 0.03 | 58 | 1011.0 |
| 20260508201543 | 52 | 333 | 2.0 | 4.0 | 0.00 | 0.03 | 0.03 | 63 | 1011.0 |
| 20260508200043 | 52 | 309 | 1.0 | 4.0 | 0.00 | 0.03 | 0.03 | 62 | 1011.2 |
| 20260508194543 | 52 | 320 | 1.0 | 6.0 | 0.00 | 0.03 | 0.03 | 61 | 1011.2 |
| 20260508193041 | 53 | 294 | 3.0 | 7.0 | 0.00 | 0.03 | 0.03 | 59 | 1011.2 |
| 20260508191547 | 54 | 271 | 1.0 | 6.0 | 0.00 | 0.03 | 0.03 | 53 | 1011.2 |
| 20260508190040 | 55 | 267 | 3.0 | 8.0 | 0.00 | 0.03 | 0.03 | 51 | 1011.2 |
| 20260508184544 | 57 | 297 | 4.0 | 9.0 | 0.00 | 0.03 | 0.03 | 50 | 1011.2 |
| 20260508183040 | 54 | 196 | 1.0 | 7.0 | 0.00 | 0.03 | 0.03 | 56 | 1011.2 |
| 20260508181536 | 54 | 205 | 3.0 | 8.0 | 0.00 | 0.03 | 0.03 | 55 | 1011.5 |
| 20260508180038 | 53 | 327 | 3.0 | 8.0 | 0.01 | 0.03 | 0.03 | 55 | 1011.6 |
| 20260508174536 | 55 | 215 | 3.0 | 8.0 | 0.01 | 0.03 | 0.03 | 53 | 1011.4 |
| 20260508173033 | 54 | 257 | 4.0 | 10.0 | 0.01 | 0.03 | 0.03 | 52 | 1011.5 |
| 20260508171531 | 53 | 237 | 4.0 | 9.0 | 0.01 | 0.03 | 0.03 | 55 | 1011.4 |
| 20260508170028 | 51 | 254 | 3.0 | 9.0 | 0.00 | 0.02 | 0.02 | 59 | 1011.5 |
| 20260508164527 | 52 | 238 | 4.0 | 8.0 | 0.00 | 0.02 | 0.02 | 58 | 1011.6 |
| 20260508163031 | 52 | 262 | 3.0 | 10.0 | 0.00 | 0.02 | 0.02 | 57 | 1011.7 |
| 20260508161524 | 51 | 281 | 4.0 | 6.0 | 0.00 | 0.02 | 0.02 | 60 | 1012.0 |
| 20260508160025 | 51 | 226 | 2.0 | 8.0 | 0.00 | 0.02 | 0.02 | 58 | 1011.9 |
| 20260508154520 | 50 | 171 | 4.0 | 8.0 | 0.00 | 0.02 | 0.02 | 59 | 1011.9 |
| 20260508153018 | 50 | 216 | 2.0 | 7.0 | 0.00 | 0.02 | 0.02 | 61 | 1011.9 |
| 20260508151514 | 49 | 254 | 1.0 | 12.0 | 0.00 | 0.02 | 0.02 | 64 | 1012.1 |
| 20260508150033 | 47 | 271 | 3.0 | 7.0 | 0.00 | 0.02 | 0.02 | 63 | 1012.3 |
| 20260508144508 | 47 | 231 | 5.0 | 13.0 | 0.00 | 0.02 | 0.02 | 66 | 1012.3 |
| 20260508143135 | 45 | 138 | 3.0 | 8.0 | 0.00 | 0.02 | 0.02 | 68 | 1012.4 |
| 20260508141526 | 46 | 201 | 2.0 | 5.0 | 0.00 | 0.02 | 0.02 | 72 | 1012.6 |
| 20260508140026 | 46 | 225 | 1.0 | 7.0 | 0.00 | 0.02 | 0.02 | 70 | 1012.7 |
| 20260508134518 | 45 | 205 | 1.0 | 4.0 | 0.00 | 0.02 | 0.02 | 72 | 1012.4 |
| 20260508133017 | 45 | 217 | 0.0 | 4.0 | 0.00 | 0.02 | 0.02 | 70 | 1012.5 |
| 20260508131514 | 44 | 220 | 1.0 | 5.0 | 0.00 | 0.02 | 0.02 | 77 | 1012.5 |
| 20260508130013 | 43 | 222 | 1.0 | 5.0 | 0.00 | 0.02 | 0.02 | 83 | 1012.4 |
| 20260508124513 | 41 | 209 | 1.0 | 3.0 | 0.00 | 0.02 | 0.02 | 88 | 1012.3 |
| 20260508123013 | 40 | 186 | 1.0 | 3.0 | 0.00 | 0.02 | 0.02 | 92 | 1012.3 |
| 20260508121512 | 40 | 194 | 2.0 | 4.0 | 0.00 | 0.02 | 0.02 | 93 | 1012.5 |
| 20260508120011 | 39 | 203 | 0.0 | 2.0 | 0.00 | 0.02 | 0.02 | 94 | 1012.3 |
| 20260508114510 | 38 | 204 | 0.0 | 1.0 | 0.00 | 0.02 | 0.02 | 94 | 1012.2 |
| 20260508113011 | 37 | 203 | 1.0 | 2.0 | 0.00 | 0.02 | 0.02 | 94 | 1012.4 |
| 20260508111507 | 37 | 203 | 0.0 | 1.0 | 0.00 | 0.02 | 0.02 | 94 | 1012.2 |
| 20260508110006 | 35 | 203 | 0.0 | 2.0 | 0.00 | 0.02 | 0.02 | 94 | 1012.1 |
| 20260508104504 | 34 | 203 | 0.0 | 2.0 | 0.00 | 0.02 | 0.02 | 92 | 1012.0 |
| 20260508103002 | 34 | 286 | 0.0 | 0.0 | 0.00 | 0.02 | 0.02 | 92 | 1011.8 |
| 20260508101559 | 35 | 286 | 0.0 | 0.0 | 0.00 | 0.02 | 0.02 | 92 | 1011.5 |
| 20260508100058 | 35 | 286 | 0.0 | 0.0 | 0.00 | 0.02 | 0.02 | 92 | 1011.6 |
| 20260508094559 | 35 | 286 | 0.0 | 0.0 | 0.00 | 0.02 | 0.02 | 91 | 1011.4 |
| 20260508093055 | 35 | 286 | 0.0 | 0.0 | 0.00 | 0.02 | 0.02 | 92 | 1011.5 |
| 20260508091607 | 35 | 286 | 0.0 | 0.0 | 0.00 | 0.02 | 0.02 | 91 | 1011.4 |
| 20260508090054 | 36 | 286 | 0.0 | 0.0 | 0.00 | 0.02 | 0.02 | 91 | 1011.3 |
| 20260508084559 | 36 | 286 | 0.0 | 0.0 | 0.00 | 0.02 | 0.02 | 91 | 1011.1 |
| 20260508083055 | 37 | 286 | 0.0 | 0.0 | 0.00 | 0.02 | 0.02 | 91 | 1011.2 |
| 20260508081549 | 37 | 286 | 0.0 | 0.0 | 0.00 | 0.02 | 0.02 | 91 | 1011.3 |
| 20260508074544 | 38 | 286 | 0.0 | 0.0 | 0.00 | 0.02 | 0.02 | 90 | 1010.9 |
| 20260508073054 | 38 | 286 | 0.0 | 0.0 | 0.00 | 0.02 | 0.02 | 89 | 1010.8 |
| 20260508071544 | 39 | 286 | 0.0 | 0.0 | 0.00 | 0.02 | 0.02 | 89 | 1010.8 |
| 20260508070039 | 39 | 286 | 0.0 | 0.0 | 0.00 | 0.02 | 0.02 | 90 | 1010.8 |
| 20260508064545 | 40 | 286 | 0.0 | 0.0 | 0.01 | 0.03 | 0.02 | 89 | 1010.8 |
| 20260508063036 | 40 | 286 | 0.0 | 0.0 | 0.01 | 0.03 | 0.02 | 89 | 1010.7 |
| 20260508061536 | 40 | 286 | 0.0 | 0.0 | 0.01 | 0.03 | 0.02 | 88 | 1010.7 |
| 20260508060033 | 41 | 286 | 0.0 | 2.0 | 0.01 | 0.03 | 0.02 | 87 | 1011.0 |
| 20260508054542 | 41 | 286 | 1.0 | 4.0 | 0.00 | 0.02 | 0.01 | 86 | 1011.3 |
| 20260508053028 | 42 | 282 | 2.0 | 4.0 | 0.00 | 0.02 | 0.01 | 86 | 1011.3 |
| 20260508051530 | 42 | 296 | 2.0 | 4.0 | 0.00 | 0.02 | 0.01 | 86 | 1011.1 |
| 20260508050023 | 43 | 309 | 0.0 | 1.0 | 0.01 | 0.02 | 0.01 | 87 | 1011.0 |
| 20260508044521 | 43 | 309 | 0.0 | 2.0 | 0.01 | 0.03 | 0.01 | 86 | 1010.9 |
| 20260508043019 | 43 | 310 | 0.0 | 1.0 | 0.01 | 0.03 | 0.01 | 84 | 1010.4 |
| 20260508041516 | 44 | 310 | 0.0 | 3.0 | 0.01 | 0.03 | 0.01 | 81 | 1010.2 |
| 20260508040032 | 45 | 312 | 2.0 | 5.0 | 0.00 | 0.02 | 0.00 | 76 | 1010.7 |
| 20260508034511 | 45 | 9 | 0.0 | 0.0 | 0.00 | 0.02 | 0.02 | 79 | 1009.9 |
| 20260508033010 | 45 | 12 | 0.0 | 0.0 | 0.00 | 0.02 | 0.02 | 78 | 1008.8 |
| 20260508031514 | 45 | 12 | 0.0 | 0.0 | 0.00 | 0.02 | 0.02 | 77 | 1009.0 |